createdAt,value
2022-08-19T00:04:28.826Z,4.90
2022-08-19T00:09:26.036Z,5.10
2022-08-19T00:14:23.380Z,5.63
2022-08-19T00:19:19.734Z,5.28
2022-08-19T00:24:16.548Z,4.95
2022-08-19T00:29:15.728Z,5.33
2022-08-19T00:34:13.261Z,7.53
2022-08-19T00:39:10.585Z,6.22
2022-08-19T00:44:15.624Z,6.00
2022-08-19T00:49:21.268Z,6.68
2022-08-19T00:54:18.561Z,6.05
2022-08-19T00:59:16.938Z,6.15
2022-08-19T01:04:33.306Z,7.72
2022-08-19T01:09:30.973Z,6.25
2022-08-19T01:14:27.335Z,7.75
2022-08-19T01:19:44.356Z,6.95
2022-08-19T01:24:42.254Z,8.32
2022-08-19T01:29:46.189Z,8.85
2022-08-19T01:34:45.133Z,8.48
2022-08-19T01:39:42.778Z,7.95
2022-08-19T01:49:38.832Z,8.30
2022-08-19T01:54:35.285Z,8.00
2022-08-19T01:59:33.522Z,7.00
2022-08-19T02:04:29.907Z,8.73
2022-08-19T02:09:26.452Z,8.52
2022-08-19T02:14:22.895Z,8.00
2022-08-19T02:19:19.248Z,7.63
2022-08-19T02:24:15.717Z,9.25
2022-08-19T02:29:12.244Z,8.05
2022-08-19T02:34:08.610Z,8.10
2022-08-19T02:39:05.056Z,7.38
2022-08-19T02:44:28.524Z,7.07
2022-08-19T02:49:19.870Z,8.15
2022-08-19T02:54:16.929Z,6.53
2022-08-19T02:59:13.454Z,6.13
2022-08-19T03:04:13.458Z,7.13
2022-08-19T03:09:10.259Z,7.72
2022-08-19T03:14:09.306Z,4.93
2022-08-19T03:19:05.678Z,7.30
2022-08-19T03:24:06.550Z,7.32
2022-08-19T03:29:05.686Z,7.18
2022-08-19T03:34:02.236Z,6.00
2022-08-19T03:39:01.740Z,7.25
2022-08-19T03:43:58.697Z,8.75
2022-08-19T03:48:57.741Z,8.80
2022-08-19T03:53:56.086Z,8.55
2022-08-19T03:58:53.487Z,9.13
2022-08-19T04:03:50.222Z,11.13
2022-08-19T04:08:46.982Z,11.55
2022-08-19T04:13:45.311Z,11.20
2022-08-19T04:18:42.043Z,8.77
2022-08-19T04:23:38.371Z,12.30
2022-08-19T04:28:42.758Z,11.23
2022-08-19T04:33:39.199Z,12.57
2022-08-19T04:38:35.551Z,14.52
2022-08-19T04:43:33.029Z,12.65
2022-08-19T04:48:29.372Z,10.00
2022-08-19T04:53:29.544Z,9.95
2022-08-19T04:58:28.409Z,11.75
2022-08-19T05:03:27.614Z,11.48
2022-08-19T05:08:30.919Z,13.13
2022-08-19T05:13:28.241Z,13.20
2022-08-19T05:18:43.325Z,13.27
2022-08-19T05:23:39.927Z,14.50
2022-08-19T05:28:36.329Z,15.00
2022-08-19T05:33:32.726Z,12.25
2022-08-19T05:38:29.616Z,12.23
2022-08-19T05:43:26.454Z,12.85
2022-08-19T05:48:22.837Z,13.63
2022-08-19T05:53:19.818Z,15.07
2022-08-19T05:58:16.264Z,11.97
2022-08-19T06:03:13.333Z,16.30
2022-08-19T06:08:09.932Z,15.25
2022-08-19T06:13:06.676Z,15.38
2022-08-19T06:18:03.081Z,15.75
2022-08-19T06:23:00.033Z,14.18
2022-08-19T06:28:14.492Z,14.03
2022-08-19T06:33:11.631Z,12.68
2022-08-19T06:38:08.406Z,12.48
2022-08-19T06:43:07.663Z,11.97
2022-08-19T06:48:05.789Z,10.23
2022-08-19T06:53:04.622Z,11.93
2022-08-19T06:58:04.950Z,10.85
2022-08-19T07:03:04.498Z,9.88
2022-08-19T07:08:06.249Z,10.02
2022-08-19T07:13:03.262Z,8.77
2022-08-19T07:17:59.617Z,7.60
2022-08-19T07:22:56.570Z,7.13
2022-08-19T07:27:54.556Z,7.05
2022-08-19T07:32:53.668Z,5.80
2022-08-19T07:37:50.555Z,5.65
2022-08-19T07:42:47.033Z,4.40
2022-08-19T07:47:48.333Z,4.88
2022-08-19T07:52:50.390Z,5.45
2022-08-19T07:57:46.794Z,5.38
2022-08-19T08:02:43.472Z,5.43
2022-08-19T08:07:58.745Z,6.10
2022-08-19T08:13:09.575Z,6.10
2022-08-19T08:18:08.258Z,5.75
2022-08-19T08:23:24.286Z,6.03
2022-08-19T08:28:20.747Z,6.40
2022-08-19T08:33:34.216Z,5.93
2022-08-19T08:38:39.178Z,5.82
2022-08-19T08:43:43.837Z,4.88
2022-08-19T08:48:52.812Z,4.95
2022-08-19T08:53:55.917Z,4.38
2022-08-19T08:59:00.835Z,4.07
2022-08-19T09:03:57.325Z,3.55
2022-08-19T09:09:32.065Z,4.10
2022-08-19T09:14:55.177Z,4.22
2022-08-19T09:19:57.597Z,3.22
2022-08-19T09:24:54.754Z,3.42
2022-08-19T09:29:52.144Z,3.83
2022-08-19T09:34:51.362Z,2.80
2022-08-19T09:39:48.163Z,3.13
2022-08-19T09:44:46.028Z,2.70
2022-08-19T09:49:42.725Z,2.47
2022-08-19T09:54:40.076Z,2.55
2022-08-19T09:59:41.069Z,2.55
2022-08-19T10:04:56.161Z,2.60
2022-08-19T10:09:52.979Z,3.10
2022-08-19T10:14:49.451Z,2.90
2022-08-19T10:19:55.280Z,2.80
2022-08-19T10:24:53.361Z,3.03
2022-08-19T10:29:49.906Z,2.60
2022-08-19T10:34:48.486Z,2.05
2022-08-19T10:39:51.005Z,2.22
2022-08-19T10:44:51.863Z,2.00
2022-08-19T10:50:08.623Z,1.98
2022-08-19T10:55:29.359Z,1.90
2022-08-19T11:00:26.677Z,2.17
2022-08-19T11:05:24.206Z,2.15
2022-08-19T11:10:22.115Z,2.25
2022-08-19T11:15:18.897Z,2.03
2022-08-19T11:20:15.965Z,2.42
2022-08-19T11:30:12.888Z,2.03
2022-08-19T11:35:09.932Z,1.85
2022-08-19T11:40:07.523Z,1.85
2022-08-19T11:45:04.935Z,2.13
2022-08-19T11:50:01.433Z,1.98
2022-08-19T11:54:57.814Z,1.80
2022-08-19T11:59:54.156Z,1.25
2022-08-19T12:04:50.793Z,1.88
2022-08-19T12:09:48.605Z,2.03
2022-08-19T12:14:45.395Z,1.70
2022-08-19T12:19:41.773Z,1.70
2022-08-19T12:24:38.173Z,1.73
2022-08-19T12:29:34.707Z,2.08
2022-08-19T12:34:32.918Z,1.70
2022-08-19T12:39:29.281Z,1.38
2022-08-19T12:44:29.305Z,1.75
2022-08-19T12:49:51.996Z,1.98
2022-08-19T12:54:45.087Z,1.55
2022-08-19T12:59:42.343Z,1.98
2022-08-19T13:04:41.584Z,1.73
2022-08-19T13:09:38.562Z,1.80
2022-08-19T13:14:36.264Z,2.10
2022-08-19T13:19:37.643Z,1.67
2022-08-19T13:24:34.144Z,1.90
2022-08-19T13:29:48.975Z,1.50
2022-08-19T13:34:47.594Z,2.15
2022-08-19T13:39:44.083Z,1.85
2022-08-19T13:44:40.600Z,1.83
2022-08-19T13:49:37.343Z,1.60
2022-08-19T13:59:30.132Z,1.33
2022-08-19T14:04:26.522Z,1.63
2022-08-19T14:09:22.878Z,1.77
2022-08-19T14:14:19.232Z,1.27
2022-08-19T14:19:15.606Z,1.73
2022-08-19T14:24:11.975Z,1.80
2022-08-19T14:29:08.413Z,1.67
2022-08-19T14:34:04.943Z,1.70
2022-08-19T14:39:01.855Z,1.38
2022-08-19T14:48:56.015Z,1.65
2022-08-19T14:53:53.029Z,2.28
2022-08-19T15:03:50.080Z,1.60
2022-08-19T15:08:46.717Z,1.60
2022-08-19T15:13:45.110Z,1.80
2022-08-19T15:18:45.642Z,1.73
2022-08-19T15:23:42.114Z,1.80
2022-08-19T15:28:42.744Z,1.70
2022-08-19T15:33:42.811Z,1.77
2022-08-19T15:38:43.193Z,1.60
2022-08-19T15:43:42.742Z,1.60
2022-08-19T15:48:39.191Z,1.90
2022-08-19T15:53:35.565Z,1.63
2022-08-19T15:58:50.474Z,1.85
2022-08-19T16:04:05.945Z,2.13
2022-08-19T16:09:10.761Z,1.98
2022-08-19T16:14:09.509Z,2.03
2022-08-19T16:19:11.890Z,2.00
2022-08-19T16:24:12.880Z,2.10
2022-08-19T16:29:12.155Z,1.88
2022-08-19T16:34:10.769Z,2.08
2022-08-19T16:39:09.047Z,2.35
2022-08-19T16:44:07.292Z,2.25
2022-08-19T16:49:04.697Z,3.65
2022-08-19T16:54:01.812Z,2.85
2022-08-19T16:59:01.183Z,1.88
2022-08-19T17:03:58.452Z,2.33
2022-08-19T17:08:59.261Z,2.28
2022-08-19T17:13:58.959Z,2.30
2022-08-19T17:18:57.310Z,2.85
2022-08-19T17:23:55.516Z,2.92
2022-08-19T17:28:54.708Z,3.20
2022-08-19T17:33:52.171Z,3.38
2022-08-19T17:38:49.120Z,3.00
2022-08-19T17:43:45.832Z,3.00
2022-08-19T17:48:42.780Z,3.10
2022-08-19T17:53:39.155Z,3.17
2022-08-19T17:58:35.580Z,3.00
2022-08-19T18:03:33.061Z,2.78
2022-08-19T18:08:29.498Z,3.20
2022-08-19T18:13:26.245Z,3.17
2022-08-19T18:18:22.614Z,2.85
2022-08-19T18:23:44.279Z,3.00
2022-08-19T18:28:35.638Z,3.33
2022-08-19T18:33:34.389Z,3.80
2022-08-19T18:38:59.913Z,3.15
2022-08-19T18:44:17.000Z,2.50
2022-08-19T18:49:25.720Z,2.67
2022-08-19T18:54:23.852Z,2.88
2022-08-19T18:59:21.072Z,3.00
2022-08-19T19:04:20.730Z,3.10
2022-08-19T19:09:21.185Z,3.28
2022-08-19T19:14:47.584Z,3.75
2022-08-19T19:19:42.870Z,3.45
2022-08-19T19:24:44.118Z,3.50
2022-08-19T19:29:41.983Z,3.20
2022-08-19T19:34:39.429Z,3.25
2022-08-19T19:39:45.357Z,3.05
2022-08-19T19:44:47.978Z,3.70
2022-08-19T19:50:13.928Z,4.40
2022-08-19T19:55:09.474Z,3.28
2022-08-19T20:00:08.681Z,3.67
2022-08-19T20:05:05.584Z,3.90
2022-08-19T20:10:01.984Z,3.95
2022-08-19T20:14:58.345Z,3.93
2022-08-19T20:19:58.013Z,4.27
2022-08-19T20:24:54.895Z,3.60
2022-08-19T20:29:51.233Z,3.55
2022-08-19T20:34:49.742Z,4.15
2022-08-19T20:39:46.254Z,3.83
2022-08-19T20:44:43.459Z,4.73
2022-08-19T20:49:39.824Z,4.50
2022-08-19T20:54:36.222Z,4.50
2022-08-19T20:59:32.685Z,4.30
2022-08-19T21:04:29.237Z,4.03
2022-08-19T21:09:25.643Z,5.60
2022-08-19T21:14:23.138Z,4.97
2022-08-19T21:24:21.047Z,5.68
2022-08-19T21:34:14.721Z,4.75
2022-08-19T21:39:11.098Z,5.90
2022-08-19T21:44:07.468Z,5.78
2022-08-19T21:49:05.253Z,5.65
2022-08-19T21:54:01.768Z,5.28
2022-08-19T22:03:55.497Z,4.97
2022-08-19T22:08:55.353Z,4.88
2022-08-19T22:13:53.796Z,5.25
2022-08-19T22:18:51.108Z,5.68
2022-08-19T22:23:47.954Z,6.05
2022-08-19T22:28:44.519Z,7.10
2022-08-19T22:33:41.509Z,6.90
2022-08-19T22:38:38.273Z,6.80
2022-08-19T22:43:37.349Z,7.23
2022-08-19T22:48:33.750Z,8.05
2022-08-19T22:53:30.335Z,8.93
2022-08-19T22:58:28.187Z,9.00
2022-08-19T23:03:25.989Z,8.07
2022-08-19T23:08:23.171Z,6.10
2022-08-19T23:13:19.798Z,5.93
2022-08-19T23:18:16.701Z,5.50
2022-08-19T23:23:18.713Z,5.28
2022-08-19T23:28:33.602Z,7.65
2022-08-19T23:33:50.821Z,7.30
2022-08-19T23:38:50.502Z,6.53
2022-08-19T23:43:47.502Z,9.98
2022-08-19T23:48:47.449Z,12.07
2022-08-19T23:53:44.884Z,11.33
